Elizabeth, New Jersey
Current Conditions -  °F | °C
As of 1:51 PM on Friday 28 Nov 2014 (Local Time) from KEWR Reporting Station
Scattered Clouds Scattered Clouds  
Wind Chill: -4°   Ceiling: Unl
Heat Index:   Visibility: 10mi
Dew Point: -8°   Wind: 18mph
Humidity: 46%   Direction: 310°NW
Pressure: 30.17"   Gusts: 24mph
Location:  40.66°N, 74.21°W
Report Text: KEWR 281851Z 31016G21KT 10SM SCT045 02/M08 A3017 RMK AO2 SLP217 T00221083
Loading
Personal Weather Stations






























Interactive Weather Map New forecast layout! Learn more

10-Day Weather Forecast

Advertisements
Track Severe Weather on mobile